Time;durP1;ratioP1;P1;durP2;ratioP2;P2;SDS_P1;SDS_P2;PMS_P1;PMS_P2;Temp;Humidity;BMP_temperature;BMP_pressure;BME280_temperature;BME280_humidity;BME280_pressure;Samples;Min_cycle;Max_cycle;Signal;HPM_P1;HPM_P2
2023/06/20 00:00:35;;;;;;;9.75;7.97;;;;;;;;;;5073359;28;20242;-62
2023/06/20 00:03:02;;;;;;;8.10;7.40;;;;;;;;;;5064768;28;20221;-64
2023/06/20 00:05:30;;;;;;;8.38;7.65;;;;;;;;;;5060032;28;20198;-64
2023/06/20 00:07:57;;;;;;;7.90;7.30;;;;;;;;;;5075450;28;20194;-64
2023/06/20 00:10:24;;;;;;;8.75;7.95;;;;;;;;;;5070288;28;20255;-64
2023/06/20 00:12:52;;;;;;;8.70;7.97;;;;;;;;;;5069150;28;20224;-64
2023/06/20 00:15:25;;;;;;;9.07;8.27;;;;;;;;;;5067134;28;20222;-64
2023/06/20 00:17:53;;;;;;;9.30;7.65;;;;;;;;;;5052950;28;20205;-64
2023/06/20 00:20:21;;;;;;;8.35;7.63;;;;;;;;;;5073102;28;20655;-64
2023/06/20 00:22:50;;;;;;;8.10;7.40;;;;;;;;;;5065073;28;20261;-64
2023/06/20 00:25:18;;;;;;;7.72;7.03;;;;;;;;;;5072486;28;20228;-64
2023/06/20 00:27:46;;;;;;;6.72;5.90;;;;;;;;;;5066005;28;20431;-64
2023/06/20 00:30:13;;;;;;;8.57;5.78;;;;;;;;;;5045359;28;20206;-64
2023/06/20 00:32:41;;;;;;;6.22;4.72;;;;;;;;;;5041958;28;20756;-63
2023/06/20 00:35:08;;;;;;;7.20;5.82;;;;;;;;;;5060626;28;20255;-63
2023/06/20 00:37:38;;;;;;;6.38;5.22;;;;;;;;;;5060858;28;20197;-63
2023/06/20 00:40:07;;;;;;;7.05;5.90;;;;;;;;;;5069763;28;20284;-63
2023/06/20 00:42:35;;;;;;;6.38;5.63;;;;;;;;;;5056576;28;20225;-63
2023/06/20 00:45:03;;;;;;;6.20;5.60;;;;;;;;;;5061205;28;20214;-64
2023/06/20 00:47:30;;;;;;;7.18;6.05;;;;;;;;;;5072769;28;20197;-64
2023/06/20 00:49:58;;;;;;;6.05;5.45;;;;;;;;;;5063575;28;20580;-64
2023/06/20 00:52:26;;;;;;;5.88;5.28;;;;;;;;;;5071174;28;20265;-63
2023/06/20 00:54:53;;;;;;;5.85;5.25;;;;;;;;;;5074937;28;20201;-64
2023/06/20 00:57:20;;;;;;;6.97;5.88;;;;;;;;;;5068808;28;20196;-64
2023/06/20 00:59:49;;;;;;;7.47;5.65;;;;;;;;;;5068394;28;20205;-63
2023/06/20 01:02:16;;;;;;;6.60;5.38;;;;;;;;;;5053104;28;20229;-63
2023/06/20 01:04:46;;;;;;;9.00;5.40;;;;;;;;;;5057757;28;20303;-63
2023/06/20 01:07:13;;;;;;;9.27;4.78;;;;;;;;;;5061522;28;20209;-63
2023/06/20 01:10:13;;;;;;;8.07;4.95;;;;;;;;;;5074329;28;20206;-63
2023/06/20 01:12:48;;;;;;;5.28;4.53;;;;;;;;;;5042536;28;20232;-63
2023/06/20 01:15:30;;;;;;;5.22;4.72;;;;;;;;;;5062621;28;20705;-63
2023/06/20 01:18:09;;;;;;;6.70;4.82;;;;;;;;;;5069874;28;20206;-64
2023/06/20 01:20:47;;;;;;;8.75;4.40;;;;;;;;;;5067990;28;20206;-63
2023/06/20 01:23:18;;;;;;;5.25;4.07;;;;;;;;;;5073468;28;20698;-63
2023/06/20 01:25:55;;;;;;;7.63;4.70;;;;;;;;;;5055624;28;20282;-63
2023/06/20 01:28:55;;;;;;;6.13;4.35;;;;;;;;;;5057025;28;20201;-63
2023/06/20 01:31:30;;;;;;;6.60;4.28;;;;;;;;;;5020622;28;20197;-64
2023/06/20 01:33:59;;;;;;;4.38;3.75;;;;;;;;;;5049921;28;20214;-63
2023/06/20 01:36:29;;;;;;;11.68;4.63;;;;;;;;;;5043557;28;20300;-63
2023/06/20 01:38:59;;;;;;;9.27;4.28;;;;;;;;;;5063860;28;20201;-63
2023/06/20 01:41:27;;;;;;;6.10;4.38;;;;;;;;;;5076261;28;20785;-62
2023/06/20 01:43:56;;;;;;;15.55;4.57;;;;;;;;;;5065320;28;20312;-63
2023/06/20 01:46:24;;;;;;;5.00;3.90;;;;;;;;;;5076377;28;20201;-62
2023/06/20 01:48:53;;;;;;;4.72;3.22;;;;;;;;;;5080950;28;20211;-63
2023/06/20 01:51:21;;;;;;;4.45;3.50;;;;;;;;;;5071882;28;20279;-63
2023/06/20 01:53:49;;;;;;;4.72;3.30;;;;;;;;;;5066628;28;20717;-63
2023/06/20 01:56:18;;;;;;;3.78;3.00;;;;;;;;;;5064803;28;20201;-62
2023/06/20 01:58:45;;;;;;;2.55;2.35;;;;;;;;;;5065575;28;20396;-64
2023/06/20 02:01:14;;;;;;;4.85;2.97;;;;;;;;;;5063860;28;20611;-62
2023/06/20 02:03:42;;;;;;;2.53;2.33;;;;;;;;;;5072623;28;20221;-62
2023/06/20 02:06:11;;;;;;;3.60;2.13;;;;;;;;;;5063774;28;20194;-67
2023/06/20 02:08:39;;;;;;;2.45;2.20;;;;;;;;;;5070592;28;20206;-62
2023/06/20 02:11:07;;;;;;;2.13;1.88;;;;;;;;;;5076221;28;20230;-66
2023/06/20 02:13:35;;;;;;;2.38;1.73;;;;;;;;;;5062002;28;20274;-62
2023/06/20 02:16:05;;;;;;;4.57;2.28;;;;;;;;;;5075545;28;20296;-65
2023/06/20 02:18:33;;;;;;;4.78;2.40;;;;;;;;;;5066521;28;20233;-62
2023/06/20 02:21:07;;;;;;;2.83;2.10;;;;;;;;;;5074108;28;20201;-64
2023/06/20 02:23:35;;;;;;;3.03;1.90;;;;;;;;;;5051029;28;20437;-62
2023/06/20 02:26:08;;;;;;;5.25;1.70;;;;;;;;;;5059785;28;20243;-62
2023/06/20 02:28:45;;;;;;;4.25;1.77;;;;;;;;;;5066212;28;20712;-63
2023/06/20 02:31:21;;;;;;;2.83;2.13;;;;;;;;;;5063046;28;20231;-64
2023/06/20 02:33:50;;;;;;;1.92;1.60;;;;;;;;;;5067155;28;20268;-64
2023/06/20 02:36:19;;;;;;;5.13;1.90;;;;;;;;;;5077003;28;20505;-63
2023/06/20 02:38:47;;;;;;;2.45;2.10;;;;;;;;;;5085237;28;20193;-64
2023/06/20 02:41:14;;;;;;;4.30;2.30;;;;;;;;;;5082696;28;20216;-63
2023/06/20 02:43:41;;;;;;;2.45;2.10;;;;;;;;;;5079903;28;20216;-66
2023/06/20 02:46:17;;;;;;;3.58;2.20;;;;;;;;;;5068759;28;20224;-65
2023/06/20 02:48:59;;;;;;;2.67;2.20;;;;;;;;;;5067115;28;20229;-62
2023/06/20 02:51:31;;;;;;;3.83;2.40;;;;;;;;;;5045823;28;20202;-63
2023/06/20 02:53:58;;;;;;;2.47;2.17;;;;;;;;;;5058948;28;20210;-66
2023/06/20 02:56:29;;;;;;;2.80;2.05;;;;;;;;;;5074965;28;20201;-67
2023/06/20 02:58:57;;;;;;;2.38;2.17;;;;;;;;;;5060752;28;20259;-66
2023/06/20 03:01:25;;;;;;;2.83;2.60;;;;;;;;;;5061779;28;20216;-62
2023/06/20 03:03:54;;;;;;;2.85;2.30;;;;;;;;;;5069331;28;20227;-65
2023/06/20 03:06:27;;;;;;;3.63;2.20;;;;;;;;;;5050766;28;20237;-62
2023/06/20 03:08:56;;;;;;;3.00;2.15;;;;;;;;;;5053073;28;20198;-69
2023/06/20 03:11:23;;;;;;;5.15;2.45;;;;;;;;;;5062960;28;20274;-66
2023/06/20 03:13:51;;;;;;;2.40;2.20;;;;;;;;;;5066046;28;20224;-61
2023/06/20 03:16:18;;;;;;;3.63;2.78;;;;;;;;;;5052897;28;20217;-63
2023/06/20 03:18:48;;;;;;;5.22;2.75;;;;;;;;;;5073616;28;20299;-62
2023/06/20 03:21:16;;;;;;;2.80;2.60;;;;;;;;;;5071120;28;20213;-62
2023/06/20 03:23:55;;;;;;;5.80;3.20;;;;;;;;;;5074980;28;20702;-66
2023/06/20 03:26:23;;;;;;;3.30;2.67;;;;;;;;;;5062640;28;20589;-68
2023/06/20 03:28:50;;;;;;;2.90;2.58;;;;;;;;;;5063122;28;20206;-63
2023/06/20 03:31:17;;;;;;;3.58;2.53;;;;;;;;;;5060159;28;20200;-63
2023/06/20 03:33:45;;;;;;;4.35;2.50;;;;;;;;;;5062159;28;20232;-68
2023/06/20 03:36:12;;;;;;;3.13;2.53;;;;;;;;;;5062437;28;20235;-62
2023/06/20 03:38:42;;;;;;;2.95;2.35;;;;;;;;;;5072973;28;20290;-65
2023/06/20 03:41:09;;;;;;;2.75;2.55;;;;;;;;;;5048023;28;20216;-65
2023/06/20 03:43:37;;;;;;;3.80;2.70;;;;;;;;;;5066444;28;20228;-63
2023/06/20 03:46:04;;;;;;;4.57;2.45;;;;;;;;;;5071330;28;20233;-64
2023/06/20 03:48:31;;;;;;;3.47;2.40;;;;;;;;;;5053480;28;20201;-62
2023/06/20 03:50:59;;;;;;;4.93;2.60;;;;;;;;;;5065914;28;20248;-63
2023/06/20 03:53:27;;;;;;;5.35;2.83;;;;;;;;;;5039083;28;20217;-65
2023/06/20 03:55:54;;;;;;;3.85;2.65;;;;;;;;;;5053200;28;20212;-61
2023/06/20 03:58:22;;;;;;;4.78;2.70;;;;;;;;;;5050133;28;20212;-64
2023/06/20 04:00:49;;;;;;;4.63;2.80;;;;;;;;;;5052043;28;20213;-62
2023/06/20 04:03:17;;;;;;;4.82;2.50;;;;;;;;;;5053718;28;20236;-70
2023/06/20 04:05:45;;;;;;;3.90;2.13;;;;;;;;;;5045467;28;20325;-69
2023/06/20 04:08:12;;;;;;;5.97;2.58;;;;;;;;;;5056737;28;20206;-65
2023/06/20 04:10:40;;;;;;;3.67;2.40;;;;;;;;;;5066953;28;20205;-64
2023/06/20 04:13:07;;;;;;;4.22;2.63;;;;;;;;;;5044649;28;20225;-65
2023/06/20 04:15:34;;;;;;;7.00;3.28;;;;;;;;;;5046657;28;20205;-65
2023/06/20 04:18:02;;;;;;;7.68;3.10;;;;;;;;;;5051734;28;20224;-62
2023/06/20 04:20:30;;;;;;;3.75;2.80;;;;;;;;;;5049326;28;20210;-67
2023/06/20 04:22:58;;;;;;;3.65;3.10;;;;;;;;;;5056751;28;20221;-64
2023/06/20 04:25:25;;;;;;;7.00;3.28;;;;;;;;;;5052971;28;20237;-66
2023/06/20 04:27:57;;;;;;;4.28;3.40;;;;;;;;;;5037292;28;20210;-61
2023/06/20 04:30:24;;;;;;;5.10;3.35;;;;;;;;;;5035956;28;20206;-64
2023/06/20 04:32:53;;;;;;;3.90;3.50;;;;;;;;;;5040530;28;20300;-62
2023/06/20 04:35:20;;;;;;;3.92;3.28;;;;;;;;;;5059886;28;20204;-62
2023/06/20 04:37:52;;;;;;;5.70;3.42;;;;;;;;;;5059376;28;20202;-64
2023/06/20 04:40:20;;;;;;;3.60;3.25;;;;;;;;;;5041899;28;20720;-63
2023/06/20 04:42:47;;;;;;;3.85;3.45;;;;;;;;;;5056255;28;20326;-63
2023/06/20 04:45:15;;;;;;;4.35;3.40;;;;;;;;;;5059274;28;20222;-63
2023/06/20 04:47:42;;;;;;;4.68;3.40;;;;;;;;;;5067020;28;20204;-63
2023/06/20 04:50:10;;;;;;;4.72;3.63;;;;;;;;;;5064157;28;20210;-63
2023/06/20 04:52:37;;;;;;;7.20;3.83;;;;;;;;;;5057855;28;20230;-62
2023/06/20 04:55:05;;;;;;;4.35;3.90;;;;;;;;;;5058864;28;20216;-66
2023/06/20 04:57:34;;;;;;;5.32;4.10;;;;;;;;;;5037073;28;20243;-64
2023/06/20 05:00:02;;;;;;;4.40;4.00;;;;;;;;;;5038784;28;20208;-62
2023/06/20 05:02:30;;;;;;;4.60;4.20;;;;;;;;;;5039454;28;20217;-63
2023/06/20 05:04:57;;;;;;;4.25;3.92;;;;;;;;;;5056987;28;20218;-67
2023/06/20 05:07:24;;;;;;;11.23;4.70;;;;;;;;;;5054817;28;20194;-62
2023/06/20 05:09:52;;;;;;;7.57;4.70;;;;;;;;;;5056505;28;20615;-64
2023/06/20 05:12:19;;;;;;;5.72;4.90;;;;;;;;;;5045210;28;20227;-64
2023/06/20 05:14:46;;;;;;;5.30;4.80;;;;;;;;;;5080885;28;20196;-63
2023/06/20 05:17:14;;;;;;;5.45;4.97;;;;;;;;;;5065201;28;20216;-66
2023/06/20 05:19:41;;;;;;;6.13;5.53;;;;;;;;;;5053174;28;20288;-62
2023/06/20 05:22:08;;;;;;;6.22;5.55;;;;;;;;;;5060249;28;20267;-64
2023/06/20 05:24:36;;;;;;;7.05;5.10;;;;;;;;;;5061080;28;20632;-63
2023/06/20 05:27:03;;;;;;;4.80;4.40;;;;;;;;;;5066976;28;20212;-63
2023/06/20 05:29:31;;;;;;;5.45;4.63;;;;;;;;;;5066410;28;20197;-62
2023/06/20 05:31:58;;;;;;;4.63;4.22;;;;;;;;;;5062330;28;20725;-66
2023/06/20 05:34:25;;;;;;;4.65;4.25;;;;;;;;;;5066632;28;20205;-63
2023/06/20 05:36:53;;;;;;;4.63;4.22;;;;;;;;;;5066160;28;20334;-63
2023/06/20 05:39:20;;;;;;;4.40;4.10;;;;;;;;;;5067062;28;20255;-66
2023/06/20 05:41:48;;;;;;;4.90;4.40;;;;;;;;;;5066637;28;20198;-64
2023/06/20 05:44:15;;;;;;;4.70;4.30;;;;;;;;;;5069815;28;20213;-63
2023/06/20 05:46:42;;;;;;;5.55;4.10;;;;;;;;;;5057497;28;20719;-64
2023/06/20 05:49:11;;;;;;;4.03;3.70;;;;;;;;;;5065411;28;20426;-63
2023/06/20 05:51:40;;;;;;;5.03;4.15;;;;;;;;;;5070577;28;20239;-64
2023/06/20 05:54:07;;;;;;;4.28;3.88;;;;;;;;;;5063393;28;20573;-64
2023/06/20 05:56:34;;;;;;;4.45;3.72;;;;;;;;;;5066765;28;20217;-64
2023/06/20 05:59:03;;;;;;;5.72;4.20;;;;;;;;;;5064499;28;20210;-62
2023/06/20 06:01:30;;;;;;;4.75;4.35;;;;;;;;;;5065079;28;20205;-64
2023/06/20 06:03:58;;;;;;;4.60;4.20;;;;;;;;;;5066521;28;20209;-62
2023/06/20 06:06:25;;;;;;;3.85;3.55;;;;;;;;;;5059205;28;20222;-63
2023/06/20 06:08:53;;;;;;;4.82;4.15;;;;;;;;;;5046554;28;20201;-65
2023/06/20 06:11:20;;;;;;;5.18;4.15;;;;;;;;;;5045983;28;20551;-64
2023/06/20 06:13:47;;;;;;;4.28;3.70;;;;;;;;;;5063876;28;20221;-65
2023/06/20 06:16:15;;;;;;;5.47;4.30;;;;;;;;;;5059315;28;20779;-64
2023/06/20 06:18:43;;;;;;;4.88;4.28;;;;;;;;;;5068299;28;20289;-63
2023/06/20 06:21:10;;;;;;;4.95;4.20;;;;;;;;;;5066698;28;20201;-65
2023/06/20 06:23:37;;;;;;;10.10;4.50;;;;;;;;;;5044359;28;20237;-66
2023/06/20 06:26:05;;;;;;;5.38;4.88;;;;;;;;;;5063205;28;20624;-62
2023/06/20 06:28:32;;;;;;;5.38;4.72;;;;;;;;;;5060016;28;20687;-66
2023/06/20 06:31:06;;;;;;;5.88;4.80;;;;;;;;;;5063662;28;20194;-64
2023/06/20 06:33:34;;;;;;;5.07;4.47;;;;;;;;;;5066341;28;20227;-62
2023/06/20 06:36:01;;;;;;;9.10;5.20;;;;;;;;;;5054507;28;20597;-68
2023/06/20 06:38:29;;;;;;;4.72;4.30;;;;;;;;;;5059291;28;20209;-66
2023/06/20 06:40:56;;;;;;;6.78;4.60;;;;;;;;;;5058326;28;20750;-67
2023/06/20 06:43:23;;;;;;;5.75;4.47;;;;;;;;;;5059903;28;20228;-62
2023/06/20 06:45:51;;;;;;;5.43;4.57;;;;;;;;;;5071951;28;20632;-63
2023/06/20 06:48:18;;;;;;;5.10;4.68;;;;;;;;;;5072297;28;20750;-63
2023/06/20 06:50:45;;;;;;;6.43;5.00;;;;;;;;;;5064092;28;20197;-62
2023/06/20 06:53:13;;;;;;;6.95;4.47;;;;;;;;;;5069494;28;20279;-65
2023/06/20 06:55:45;;;;;;;6.72;4.68;;;;;;;;;;5060543;28;20263;-63
2023/06/20 06:58:13;;;;;;;8.95;5.05;;;;;;;;;;5069654;28;20208;-65
2023/06/20 07:00:40;;;;;;;5.32;4.20;;;;;;;;;;5067018;28;20202;-63
2023/06/20 07:03:08;;;;;;;5.70;4.65;;;;;;;;;;5059619;28;20485;-64
2023/06/20 07:05:37;;;;;;;6.65;4.57;;;;;;;;;;5056936;28;20225;-64
2023/06/20 07:08:04;;;;;;;5.68;4.57;;;;;;;;;;5059483;28;20214;-64
2023/06/20 07:10:32;;;;;;;4.93;4.43;;;;;;;;;;5057112;28;20267;-65
2023/06/20 07:13:00;;;;;;;6.13;4.50;;;;;;;;;;5063029;28;20228;-64
2023/06/20 07:15:27;;;;;;;6.00;4.35;;;;;;;;;;5067782;28;20198;-62
2023/06/20 07:17:55;;;;;;;6.25;4.90;;;;;;;;;;5062485;28;20232;-64
2023/06/20 07:20:22;;;;;;;8.45;4.40;;;;;;;;;;5062253;28;20945;-64
2023/06/20 07:22:50;;;;;;;6.93;4.43;;;;;;;;;;5054654;28;20226;-64
2023/06/20 07:25:19;;;;;;;9.40;4.82;;;;;;;;;;5051429;28;20233;-64
2023/06/20 07:27:46;;;;;;;4.75;4.28;;;;;;;;;;5061397;28;20202;-64
2023/06/20 07:30:13;;;;;;;7.07;4.25;;;;;;;;;;5070474;28;20212;-64
2023/06/20 07:32:41;;;;;;;6.05;4.63;;;;;;;;;;5057948;28;20222;-64
2023/06/20 07:35:08;;;;;;;5.80;4.50;;;;;;;;;;5061601;28;20229;-64
2023/06/20 07:37:35;;;;;;;4.78;4.38;;;;;;;;;;5054070;28;20217;-64
2023/06/20 07:40:06;;;;;;;4.50;4.10;;;;;;;;;;5061689;28;20202;-64
2023/06/20 07:42:33;;;;;;;4.47;4.07;;;;;;;;;;5061085;28;20213;-65
2023/06/20 07:45:01;;;;;;;8.13;4.18;;;;;;;;;;5057059;28;20205;-64
2023/06/20 07:47:28;;;;;;;5.30;4.10;;;;;;;;;;5062278;28;20701;-64
2023/06/20 07:49:55;;;;;;;6.40;4.25;;;;;;;;;;5062091;28;20208;-64
2023/06/20 07:52:23;;;;;;;5.60;3.88;;;;;;;;;;5052166;28;20584;-65
2023/06/20 07:54:50;;;;;;;8.73;4.20;;;;;;;;;;5044334;28;20201;-64
2023/06/20 07:57:17;;;;;;;7.47;4.03;;;;;;;;;;5066918;28;20205;-64
2023/06/20 07:59:44;;;;;;;4.10;3.70;;;;;;;;;;5044772;28;20667;-64
2023/06/20 08:02:14;;;;;;;7.47;3.80;;;;;;;;;;5055863;28;20286;-65
2023/06/20 08:04:41;;;;;;;4.55;3.90;;;;;;;;;;5050787;28;20226;-64
2023/06/20 08:07:08;;;;;;;5.57;3.83;;;;;;;;;;5063268;28;20708;-65
2023/06/20 08:09:36;;;;;;;4.18;3.55;;;;;;;;;;5052316;28;20210;-64
2023/06/20 08:12:03;;;;;;;4.80;3.50;;;;;;;;;;5055890;28;20225;-64
2023/06/20 08:14:30;;;;;;;7.13;4.30;;;;;;;;;;5061722;28;20255;-65
2023/06/20 08:16:57;;;;;;;6.95;3.80;;;;;;;;;;5057181;28;20590;-63
2023/06/20 08:19:25;;;;;;;5.10;3.63;;;;;;;;;;5060602;28;20205;-64
2023/06/20 08:21:52;;;;;;;5.03;3.90;;;;;;;;;;5064991;28;20204;-63
2023/06/20 08:24:19;;;;;;;4.18;3.80;;;;;;;;;;5079650;28;20307;-65
2023/06/20 08:26:47;;;;;;;6.47;4.00;;;;;;;;;;5060478;28;20249;-65
2023/06/20 08:29:14;;;;;;;7.10;3.72;;;;;;;;;;5061115;28;20205;-65
2023/06/20 08:31:41;;;;;;;5.75;3.85;;;;;;;;;;5058134;28;20287;-65
2023/06/20 08:34:09;;;;;;;5.45;3.90;;;;;;;;;;5055346;28;20204;-65
2023/06/20 08:36:36;;;;;;;7.72;4.32;;;;;;;;;;5057256;28;20729;-63
2023/06/20 08:39:04;;;;;;;6.88;4.00;;;;;;;;;;5062323;28;20210;-65
2023/06/20 08:41:33;;;;;;;7.53;4.18;;;;;;;;;;5053123;28;20202;-63
2023/06/20 08:44:00;;;;;;;4.70;3.78;;;;;;;;;;5050167;28;20217;-64
2023/06/20 08:46:28;;;;;;;4.53;3.90;;;;;;;;;;5056946;28;20226;-64
2023/06/20 08:48:55;;;;;;;7.78;4.47;;;;;;;;;;5058032;28;20237;-64
2023/06/20 08:51:23;;;;;;;5.22;4.18;;;;;;;;;;5059421;28;20651;-64
2023/06/20 08:53:50;;;;;;;6.20;4.68;;;;;;;;;;5056858;28;20247;-67
2023/06/20 08:56:18;;;;;;;8.55;4.80;;;;;;;;;;5058282;28;20216;-67
2023/06/20 08:58:46;;;;;;;6.68;4.47;;;;;;;;;;5056875;28;20198;-67
2023/06/20 09:01:13;;;;;;;5.82;4.18;;;;;;;;;;5061545;28;20803;-67
2023/06/20 09:03:40;;;;;;;5.47;4.45;;;;;;;;;;5048062;28;20244;-67
2023/06/20 09:06:09;;;;;;;5.40;4.20;;;;;;;;;;5056663;28;20217;-63
2023/06/20 09:08:39;;;;;;;5.65;4.53;;;;;;;;;;5055268;28;20623;-65
2023/06/20 09:11:07;;;;;;;6.78;4.82;;;;;;;;;;5056766;28;20216;-65
2023/06/20 09:13:35;;;;;;;7.07;4.10;;;;;;;;;;5056541;28;20217;-67
2023/06/20 09:16:09;;;;;;;6.60;4.13;;;;;;;;;;5057141;28;20209;-66
2023/06/20 09:18:40;;;;;;;4.68;3.75;;;;;;;;;;5062921;28;20204;-68
2023/06/20 09:21:15;;;;;;;6.90;4.30;;;;;;;;;;5058371;28;21605;-65
2023/06/20 09:23:42;;;;;;;7.00;3.90;;;;;;;;;;5048094;28;20419;-65
2023/06/20 09:26:14;;;;;;;6.07;4.03;;;;;;;;;;5037480;28;20233;-65
2023/06/20 09:28:42;;;;;;;5.03;4.18;;;;;;;;;;5058855;28;20590;-65
2023/06/20 09:31:09;;;;;;;5.60;4.15;;;;;;;;;;5061749;28;20217;-65
2023/06/20 09:33:37;;;;;;;5.70;4.03;;;;;;;;;;5051627;28;20672;-65
2023/06/20 09:36:31;;;;;;;5.47;4.00;;;;;;;;;;5059422;28;20213;-65
2023/06/20 09:39:01;;;;;;;5.32;3.92;;;;;;;;;;5041970;28;20228;-65
2023/06/20 09:41:28;;;;;;;4.05;3.65;;;;;;;;;;5059924;28;20207;-65
2023/06/20 09:43:55;;;;;;;5.95;3.72;;;;;;;;;;5063949;28;20232;-65
2023/06/20 09:46:23;;;;;;;4.22;3.60;;;;;;;;;;5058346;28;20229;-65
2023/06/20 09:48:50;;;;;;;4.93;3.95;;;;;;;;;;5059831;28;20204;-66
2023/06/20 09:51:18;;;;;;;4.97;3.67;;;;;;;;;;5052857;28;20204;-67
2023/06/20 09:53:56;;;;;;;5.72;4.00;;;;;;;;;;5065697;28;20652;-66
2023/06/20 09:56:25;;;;;;;5.75;3.92;;;;;;;;;;5061003;28;20579;-67
2023/06/20 09:58:53;;;;;;;4.35;3.95;;;;;;;;;;5059435;28;20197;-67
2023/06/20 10:01:21;;;;;;;6.97;4.40;;;;;;;;;;5064130;28;20304;-66
2023/06/20 10:03:49;;;;;;;4.75;3.95;;;;;;;;;;5067933;28;20225;-66
2023/06/20 10:06:17;;;;;;;6.75;4.20;;;;;;;;;;5059888;28;20659;-66
2023/06/20 10:08:44;;;;;;;5.03;3.70;;;;;;;;;;5060177;28;20199;-66
2023/06/20 10:11:12;;;;;;;5.85;4.30;;;;;;;;;;5061181;28;20655;-66
2023/06/20 10:13:41;;;;;;;8.07;3.97;;;;;;;;;;5058162;28;20274;-68
2023/06/20 10:16:08;;;;;;;7.03;4.00;;;;;;;;;;5060064;28;20297;-67
2023/06/20 10:18:36;;;;;;;4.97;3.67;;;;;;;;;;5062425;28;20214;-69
2023/06/20 10:21:08;;;;;;;6.63;4.10;;;;;;;;;;5076932;28;20288;-65
2023/06/20 10:23:38;;;;;;;7.20;4.50;;;;;;;;;;5062217;28;20236;-66
2023/06/20 10:26:07;;;;;;;5.40;4.35;;;;;;;;;;5069984;28;20221;-68
2023/06/20 10:28:39;;;;;;;7.38;4.38;;;;;;;;;;5053736;28;20236;-66
2023/06/20 10:31:06;;;;;;;7.70;4.20;;;;;;;;;;5059544;28;20221;-67
2023/06/20 10:33:39;;;;;;;5.28;3.88;;;;;;;;;;5062192;28;20227;-67
2023/06/20 10:36:08;;;;;;;7.93;4.32;;;;;;;;;;5066626;28;20206;-68
2023/06/20 10:38:42;;;;;;;7.07;4.78;;;;;;;;;;5075673;28;20275;-69
2023/06/20 10:41:21;;;;;;;7.40;4.50;;;;;;;;;;5029901;28;20217;-68
2023/06/20 10:43:55;;;;;;;6.50;4.00;;;;;;;;;;5059059;28;20468;-66
2023/06/20 10:46:43;;;;;;;5.25;4.10;;;;;;;;;;5055570;28;20542;-69
2023/06/20 10:49:10;;;;;;;4.68;4.05;;;;;;;;;;5045294;28;20216;-68
2023/06/20 10:51:44;;;;;;;6.90;4.30;;;;;;;;;;5065160;28;20593;-67
2023/06/20 10:54:12;;;;;;;5.82;4.53;;;;;;;;;;5062240;28;20606;-69
2023/06/20 10:56:39;;;;;;;8.95;4.55;;;;;;;;;;5062207;28;20209;-69
2023/06/20 10:59:11;;;;;;;6.57;4.05;;;;;;;;;;5067644;28;20209;-68
2023/06/20 11:01:38;;;;;;;6.68;4.70;;;;;;;;;;5073862;28;20205;-69
2023/06/20 11:04:07;;;;;;;7.22;4.30;;;;;;;;;;5066915;28;20240;-68
2023/06/20 11:06:34;;;;;;;6.18;4.45;;;;;;;;;;5060308;28;20267;-68
2023/06/20 11:09:02;;;;;;;6.35;4.47;;;;;;;;;;5062154;28;20193;-69
2023/06/20 11:11:39;;;;;;;7.05;4.35;;;;;;;;;;5059737;28;20282;-69
2023/06/20 11:14:14;;;;;;;5.57;4.40;;;;;;;;;;5067545;28;20292;-67
2023/06/20 11:16:42;;;;;;;7.95;4.47;;;;;;;;;;5058828;28;20207;-69
2023/06/20 11:19:10;;;;;;;5.85;4.20;;;;;;;;;;5067632;28;20207;-69
2023/06/20 11:22:00;;;;;;;8.05;4.60;;;;;;;;;;5063447;28;20217;-68
2023/06/20 11:24:27;;;;;;;6.07;4.53;;;;;;;;;;5063940;28;20233;-68
2023/06/20 11:26:55;;;;;;;6.72;4.32;;;;;;;;;;5053311;28;20221;-68
2023/06/20 11:29:23;;;;;;;6.65;4.20;;;;;;;;;;5067963;28;20805;-69
2023/06/20 11:32:07;;;;;;;6.00;4.53;;;;;;;;;;5063277;28;20205;-69
2023/06/20 11:34:53;;;;;;;6.90;4.70;;;;;;;;;;5068352;28;20467;-68
2023/06/20 11:37:22;;;;;;;7.28;4.43;;;;;;;;;;5063698;28;20619;-68
2023/06/20 11:39:49;;;;;;;6.55;4.75;;;;;;;;;;5061725;28;20231;-68
2023/06/20 11:42:17;;;;;;;6.68;4.15;;;;;;;;;;5064832;28;20225;-68
2023/06/20 11:44:44;;;;;;;9.00;4.75;;;;;;;;;;5064790;28;20204;-68
2023/06/20 11:47:12;;;;;;;8.15;4.72;;;;;;;;;;5066445;28;20226;-67
2023/06/20 11:49:40;;;;;;;8.30;4.55;;;;;;;;;;5064567;28;20209;-68
2023/06/20 11:52:08;;;;;;;6.85;4.38;;;;;;;;;;5060357;28;20222;-68
2023/06/20 11:54:48;;;;;;;9.70;4.30;;;;;;;;;;5069338;28;20201;-67
2023/06/20 11:57:31;;;;;;;9.15;5.03;;;;;;;;;;5064881;28;20225;-67
2023/06/20 12:00:06;;;;;;;5.28;4.00;;;;;;;;;;5063537;28;20614;-67
2023/06/20 12:02:38;;;;;;;9.85;4.63;;;;;;;;;;5051310;28;20288;-67
2023/06/20 12:05:05;;;;;;;8.63;4.47;;;;;;;;;;5058494;28;20219;-66
2023/06/20 12:07:48;;;;;;;5.90;4.40;;;;;;;;;;5060782;28;20225;-67
2023/06/20 12:10:15;;;;;;;5.90;4.50;;;;;;;;;;5056797;28;20205;-67
2023/06/20 12:12:43;;;;;;;6.32;4.32;;;;;;;;;;5065193;28;20703;-68
2023/06/20 12:15:11;;;;;;;8.10;4.20;;;;;;;;;;5062572;28;20206;-67
2023/06/20 12:17:39;;;;;;;8.35;4.45;;;;;;;;;;5060040;28;20205;-63
2023/06/20 12:20:07;;;;;;;7.55;4.60;;;;;;;;;;5053415;28;20216;-66
2023/06/20 12:22:54;;;;;;;10.18;4.43;;;;;;;;;;5065688;28;20320;-68
2023/06/20 12:25:21;;;;;;;5.00;3.70;;;;;;;;;;5052876;28;20292;-68
2023/06/20 12:27:49;;;;;;;11.10;4.50;;;;;;;;;;5062678;28;20233;-68
2023/06/20 12:30:17;;;;;;;6.53;4.07;;;;;;;;;;5041949;28;20205;-68
2023/06/20 12:32:44;;;;;;;8.70;4.30;;;;;;;;;;5061739;28;20163;-69
2023/06/20 12:35:11;;;;;;;8.20;4.45;;;;;;;;;;5075455;28;20208;-68
2023/06/20 12:37:40;;;;;;;10.98;3.78;;;;;;;;;;5062036;28;20773;-68
2023/06/20 12:40:09;;;;;;;7.43;4.40;;;;;;;;;;5067827;28;20209;-68
2023/06/20 12:42:36;;;;;;;8.07;4.28;;;;;;;;;;5065222;28;20250;-68
2023/06/20 12:45:04;;;;;;;7.20;4.03;;;;;;;;;;5079950;28;20639;-67
2023/06/20 12:47:32;;;;;;;9.60;4.55;;;;;;;;;;5052033;28;20224;-66
2023/06/20 12:50:02;;;;;;;8.70;4.35;;;;;;;;;;5064837;28;20240;-66
2023/06/20 12:52:30;;;;;;;7.93;4.40;;;;;;;;;;5083317;28;20744;-66
2023/06/20 12:55:00;;;;;;;9.40;4.45;;;;;;;;;;5075229;28;20196;-65
2023/06/20 12:57:28;;;;;;;11.50;4.80;;;;;;;;;;5075264;28;20763;-65
2023/06/20 12:59:56;;;;;;;5.97;3.95;;;;;;;;;;5071134;28;20202;-64
2023/06/20 13:02:24;;;;;;;9.68;4.45;;;;;;;;;;5066428;28;20220;-64
2023/06/20 13:04:53;;;;;;;7.85;4.47;;;;;;;;;;5061642;28;20225;-64
2023/06/20 13:07:21;;;;;;;8.10;4.22;;;;;;;;;;5071266;28;20629;-64
2023/06/20 13:09:49;;;;;;;7.20;4.20;;;;;;;;;;5060846;28;20216;-65
2023/06/20 13:12:16;;;;;;;9.05;4.43;;;;;;;;;;5064135;28;20228;-64
2023/06/20 13:14:44;;;;;;;7.05;4.57;;;;;;;;;;5063866;28;20212;-65
2023/06/20 13:17:32;;;;;;;8.43;3.92;;;;;;;;;;5065927;28;20308;-65
2023/06/20 13:20:00;;;;;;;8.77;4.00;;;;;;;;;;5055445;28;20210;-66
2023/06/20 13:22:27;;;;;;;7.63;4.35;;;;;;;;;;5055507;28;20596;-66
2023/06/20 13:24:55;;;;;;;7.80;4.18;;;;;;;;;;5063097;28;20209;-64
2023/06/20 13:27:25;;;;;;;5.85;4.15;;;;;;;;;;5062051;28;20221;-64
2023/06/20 13:29:57;;;;;;;9.23;4.78;;;;;;;;;;5043419;28;20196;-65
2023/06/20 13:32:24;;;;;;;8.77;4.28;;;;;;;;;;5057911;28;20224;-65
2023/06/20 13:34:52;;;;;;;8.70;4.60;;;;;;;;;;5064253;28;20291;-64
2023/06/20 13:37:19;;;;;;;7.95;4.57;;;;;;;;;;5079703;28;20209;-64
2023/06/20 13:39:46;;;;;;;9.35;4.13;;;;;;;;;;5063633;28;20215;-65
2023/06/20 13:42:14;;;;;;;11.80;4.90;;;;;;;;;;5076007;28;20225;-65
2023/06/20 13:44:41;;;;;;;9.82;4.38;;;;;;;;;;5068669;28;20212;-64
2023/06/20 13:47:10;;;;;;;10.35;4.18;;;;;;;;;;5065019;28;20236;-65
2023/06/20 13:49:38;;;;;;;12.27;4.78;;;;;;;;;;5069523;28;20227;-65
2023/06/20 13:52:07;;;;;;;6.15;4.22;;;;;;;;;;5064361;28;20225;-65
2023/06/20 13:54:34;;;;;;;11.75;4.53;;;;;;;;;;5063598;28;20267;-63
2023/06/20 13:57:01;;;;;;;7.68;4.18;;;;;;;;;;5063705;28;20254;-65
2023/06/20 13:59:28;;;;;;;7.85;4.35;;;;;;;;;;5070398;28;20623;-65
2023/06/20 14:01:56;;;;;;;9.38;4.32;;;;;;;;;;5065580;28;20303;-64
2023/06/20 14:04:23;;;;;;;8.57;4.70;;;;;;;;;;5067801;28;20205;-65
2023/06/20 14:06:51;;;;;;;9.38;4.53;;;;;;;;;;5063940;28;20654;-64
2023/06/20 14:09:18;;;;;;;10.07;4.38;;;;;;;;;;5066575;28;20220;-64
2023/06/20 14:11:45;;;;;;;12.10;4.72;;;;;;;;;;5065750;28;20197;-65
2023/06/20 14:14:13;;;;;;;7.18;4.43;;;;;;;;;;5067989;28;20627;-64
2023/06/20 14:16:40;;;;;;;10.15;4.18;;;;;;;;;;5059526;28;20205;-65
2023/06/20 14:19:07;;;;;;;9.35;4.80;;;;;;;;;;5062692;28;20584;-65
2023/06/20 14:21:35;;;;;;;7.50;4.40;;;;;;;;;;5062916;28;20687;-66
2023/06/20 14:24:02;;;;;;;9.68;4.43;;;;;;;;;;5053673;28;20687;-64
2023/06/20 14:26:31;;;;;;;9.45;4.03;;;;;;;;;;5066386;28;20688;-65
2023/06/20 14:28:58;;;;;;;8.48;4.32;;;;;;;;;;5060980;28;20317;-65
2023/06/20 14:31:25;;;;;;;8.63;4.50;;;;;;;;;;5056956;28;20204;-65
2023/06/20 14:33:53;;;;;;;6.85;4.45;;;;;;;;;;5050569;28;20229;-65
2023/06/20 14:36:20;;;;;;;10.30;4.57;;;;;;;;;;5060664;28;20209;-67
2023/06/20 14:38:48;;;;;;;9.82;4.88;;;;;;;;;;5065300;28;20208;-64
2023/06/20 14:41:15;;;;;;;7.85;4.55;;;;;;;;;;5063006;28;20728;-64
2023/06/20 14:43:44;;;;;;;10.00;4.55;;;;;;;;;;5059164;28;20302;-64
2023/06/20 14:46:11;;;;;;;9.95;4.53;;;;;;;;;;5059381;28;20650;-64
2023/06/20 14:48:39;;;;;;;9.25;4.45;;;;;;;;;;5055252;28;20347;-66
2023/06/20 14:51:06;;;;;;;9.07;4.47;;;;;;;;;;5064042;28;21261;-65
2023/06/20 14:53:35;;;;;;;8.88;4.15;;;;;;;;;;5061130;28;20220;-66